sensor_id;sensor_type;location;lat;lon;timestamp;pressure;altitude;pressure_sealevel;temperature;humidity
62508;BME280;48556;51.972;4.624;2022-09-09T00:12:22;100805.69;;;19.27;65.26
62508;BME280;48556;51.972;4.624;2022-09-09T00:15:02;100802.56;;;19.37;65.13
62508;BME280;48556;51.972;4.624;2022-09-09T00:20:29;100793.31;;;19.26;64.84
62508;BME280;48556;51.972;4.624;2022-09-09T00:25:40;100788.56;;;19.14;65.69
62508;BME280;48556;51.972;4.624;2022-09-09T00:28:16;100788.88;;;18.89;66.14
62508;BME280;48556;51.972;4.624;2022-09-09T00:30:43;100784.06;;;19.34;64.82
62508;BME280;48556;51.972;4.624;2022-09-09T00:33:16;100789.22;;;19.37;64.78
62508;BME280;48556;51.972;4.624;2022-09-09T00:35:56;100780.03;;;19.44;64.56
62508;BME280;48556;51.972;4.624;2022-09-09T00:41:26;100776.75;;;19.20;65.17
62508;BME280;48556;51.972;4.624;2022-09-09T00:44:34;100771.13;;;19.43;64.89
62508;BME280;48556;51.972;4.624;2022-09-09T00:47:17;100769.34;;;19.61;63.92
62508;BME280;48556;51.972;4.624;2022-09-09T00:49:50;100768.16;;;19.32;64.58
62508;BME280;48556;51.972;4.624;2022-09-09T00:58:25;100766.31;;;19.15;65.55
62508;BME280;48556;51.972;4.624;2022-09-09T01:00:57;100767.41;;;19.11;65.49
62508;BME280;48556;51.972;4.624;2022-09-09T01:03:33;100766.19;;;19.36;64.68
62508;BME280;48556;51.972;4.624;2022-09-09T01:06:16;100766.66;;;19.26;64.93
62508;BME280;48556;51.972;4.624;2022-09-09T01:12:01;100772.78;;;19.46;64.43
62508;BME280;48556;51.972;4.624;2022-09-09T01:17:05;100767.56;;;19.25;64.39
62508;BME280;48556;51.972;4.624;2022-09-09T01:19:57;100755.97;;;19.26;64.57
62508;BME280;48556;51.972;4.624;2022-09-09T01:22:34;100751.25;;;19.14;65.39
62508;BME280;48556;51.972;4.624;2022-09-09T01:25:22;100743.38;;;19.30;65.02
62508;BME280;48556;51.972;4.624;2022-09-09T01:27:56;100753.84;;;19.52;64.12
62508;BME280;48556;51.972;4.624;2022-09-09T01:30:25;100750.28;;;19.52;64.28
62508;BME280;48556;51.972;4.624;2022-09-09T01:32:57;100732.72;;;19.65;63.87
62508;BME280;48556;51.972;4.624;2022-09-09T01:35:35;100736.25;;;19.48;64.12
62508;BME280;48556;51.972;4.624;2022-09-09T01:38:03;100735.16;;;19.70;63.64
62508;BME280;48556;51.972;4.624;2022-09-09T01:40:29;100737.56;;;19.74;63.25
62508;BME280;48556;51.972;4.624;2022-09-09T01:42:56;100743.63;;;19.95;62.70
62508;BME280;48556;51.972;4.624;2022-09-09T01:45:23;100739.72;;;19.68;63.07
62508;BME280;48556;51.972;4.624;2022-09-09T01:47:52;100738.44;;;19.75;62.77
62508;BME280;48556;51.972;4.624;2022-09-09T01:50:20;100738.44;;;19.57;63.27
62508;BME280;48556;51.972;4.624;2022-09-09T01:52:55;100736.88;;;19.71;63.03
62508;BME280;48556;51.972;4.624;2022-09-09T01:55:32;100733.88;;;19.77;62.72
62508;BME280;48556;51.972;4.624;2022-09-09T02:01:32;100734.03;;;19.56;63.57
62508;BME280;48556;51.972;4.624;2022-09-09T02:04:11;100728.72;;;19.39;63.83
62508;BME280;48556;51.972;4.624;2022-09-09T02:06:45;100729.34;;;19.61;63.10
62508;BME280;48556;51.972;4.624;2022-09-09T02:09:19;100720.50;;;19.61;63.15
62508;BME280;48556;51.972;4.624;2022-09-09T02:11:47;100723.97;;;19.80;62.66
62508;BME280;48556;51.972;4.624;2022-09-09T02:14:23;100726.13;;;19.55;63.42
62508;BME280;48556;51.972;4.624;2022-09-09T02:17:07;100719.47;;;19.81;62.37
62508;BME280;48556;51.972;4.624;2022-09-09T02:19:48;100710.81;;;19.93;62.12
62508;BME280;48556;51.972;4.624;2022-09-09T02:22:23;100719.53;;;19.97;61.73
62508;BME280;48556;51.972;4.624;2022-09-09T02:24:58;100713.56;;;19.39;63.56
62508;BME280;48556;51.972;4.624;2022-09-09T02:27:40;100715.69;;;19.50;63.43
62508;BME280;48556;51.972;4.624;2022-09-09T02:30:10;100714.06;;;19.30;64.13
62508;BME280;48556;51.972;4.624;2022-09-09T02:32:42;100701.50;;;19.67;62.84
62508;BME280;48556;51.972;4.624;2022-09-09T02:35:21;100703.31;;;19.49;63.14
62508;BME280;48556;51.972;4.624;2022-09-09T02:37:55;100700.63;;;19.49;63.10
62508;BME280;48556;51.972;4.624;2022-09-09T02:40:22;100684.16;;;19.76;62.39
62508;BME280;48556;51.972;4.624;2022-09-09T02:42:49;100681.16;;;19.64;62.89
62508;BME280;48556;51.972;4.624;2022-09-09T02:45:21;100696.09;;;19.51;63.31
62508;BME280;48556;51.972;4.624;2022-09-09T02:53:23;100684.72;;;19.83;61.84
62508;BME280;48556;51.972;4.624;2022-09-09T02:56:15;100698.44;;;19.75;62.12
62508;BME280;48556;51.972;4.624;2022-09-09T02:58:43;100688.72;;;19.56;62.77
62508;BME280;48556;51.972;4.624;2022-09-09T03:01:11;100693.09;;;19.75;62.19
62508;BME280;48556;51.972;4.624;2022-09-09T03:03:38;100685.75;;;19.62;62.67
62508;BME280;48556;51.972;4.624;2022-09-09T03:06:07;100681.81;;;19.70;62.21
62508;BME280;48556;51.972;4.624;2022-09-09T03:08:33;100684.94;;;19.78;62.17
62508;BME280;48556;51.972;4.624;2022-09-09T03:11:01;100685.72;;;19.80;62.00
62508;BME280;48556;51.972;4.624;2022-09-09T03:13:30;100676.63;;;19.84;61.66
62508;BME280;48556;51.972;4.624;2022-09-09T03:15:57;100672.06;;;19.69;61.96
62508;BME280;48556;51.972;4.624;2022-09-09T03:18:24;100689.97;;;19.67;62.02
62508;BME280;48556;51.972;4.624;2022-09-09T03:20:50;100686.53;;;19.47;62.59
62508;BME280;48556;51.972;4.624;2022-09-09T03:23:16;100682.31;;;19.43;63.00
62508;BME280;48556;51.972;4.624;2022-09-09T03:25:52;100687.78;;;19.05;64.11
62508;BME280;48556;51.972;4.624;2022-09-09T03:28:27;100692.06;;;19.07;63.75
62508;BME280;48556;51.972;4.624;2022-09-09T03:31:00;100689.06;;;18.96;64.56
62508;BME280;48556;51.972;4.624;2022-09-09T03:33:26;100688.88;;;19.18;63.33
62508;BME280;48556;51.972;4.624;2022-09-09T03:35:52;100676.97;;;19.08;64.18
62508;BME280;48556;51.972;4.624;2022-09-09T03:38:25;100686.38;;;18.59;65.88
62508;BME280;48556;51.972;4.624;2022-09-09T03:40:56;100680.38;;;18.73;65.03
62508;BME280;48556;51.972;4.624;2022-09-09T03:43:28;100676.09;;;18.33;66.29
62508;BME280;48556;51.972;4.624;2022-09-09T03:45:55;100682.63;;;18.83;64.60
62508;BME280;48556;51.972;4.624;2022-09-09T03:48:30;100687.38;;;18.76;65.28
62508;BME280;48556;51.972;4.624;2022-09-09T03:50:56;100689.16;;;18.94;64.50
62508;BME280;48556;51.972;4.624;2022-09-09T03:53:33;100683.31;;;18.86;64.70
62508;BME280;48556;51.972;4.624;2022-09-09T03:55:59;100683.63;;;18.99;63.78
62508;BME280;48556;51.972;4.624;2022-09-09T03:58:27;100686.81;;;19.06;63.99
62508;BME280;48556;51.972;4.624;2022-09-09T04:01:00;100679.50;;;19.28;63.21
62508;BME280;48556;51.972;4.624;2022-09-09T04:03:32;100674.50;;;19.03;63.77
62508;BME280;48556;51.972;4.624;2022-09-09T04:06:00;100674.91;;;18.95;63.88
62508;BME280;48556;51.972;4.624;2022-09-09T04:08:41;100668.41;;;18.82;64.34
62508;BME280;48556;51.972;4.624;2022-09-09T04:11:07;100669.22;;;18.84;64.30
62508;BME280;48556;51.972;4.624;2022-09-09T04:13:34;100668.66;;;18.58;65.24
62508;BME280;48556;51.972;4.624;2022-09-09T04:16:05;100662.31;;;18.99;64.26
62508;BME280;48556;51.972;4.624;2022-09-09T04:18:35;100669.56;;;18.76;64.54
62508;BME280;48556;51.972;4.624;2022-09-09T04:21:05;100664.66;;;18.69;64.84
62508;BME280;48556;51.972;4.624;2022-09-09T04:23:33;100661.63;;;18.57;65.33
62508;BME280;48556;51.972;4.624;2022-09-09T04:26:02;100655.91;;;18.28;66.00
62508;BME280;48556;51.972;4.624;2022-09-09T04:28:34;100653.75;;;18.37;65.71
62508;BME280;48556;51.972;4.624;2022-09-09T04:31:21;100653.59;;;18.40;65.99
62508;BME280;48556;51.972;4.624;2022-09-09T04:33:49;100643.50;;;18.66;65.18
62508;BME280;48556;51.972;4.624;2022-09-09T04:36:15;100651.16;;;18.35;66.20
62508;BME280;48556;51.972;4.624;2022-09-09T04:38:44;100653.53;;;18.22;66.69
62508;BME280;48556;51.972;4.624;2022-09-09T04:41:09;100645.59;;;18.02;67.33
62508;BME280;48556;51.972;4.624;2022-09-09T04:43:39;100646.09;;;18.29;66.53
62508;BME280;48556;51.972;4.624;2022-09-09T04:46:04;100642.66;;;18.27;66.41
62508;BME280;48556;51.972;4.624;2022-09-09T04:48:30;100647.41;;;18.39;66.40
62508;BME280;48556;51.972;4.624;2022-09-09T04:51:08;100642.19;;;18.74;65.29
62508;BME280;48556;51.972;4.624;2022-09-09T04:53:46;100643.59;;;18.82;64.90
62508;BME280;48556;51.972;4.624;2022-09-09T04:56:17;100639.91;;;18.48;65.97
62508;BME280;48556;51.972;4.624;2022-09-09T04:58:43;100648.75;;;18.48;66.62
62508;BME280;48556;51.972;4.624;2022-09-09T05:01:16;100645.31;;;18.46;66.29
62508;BME280;48556;51.972;4.624;2022-09-09T05:03:56;100643.09;;;18.56;66.44
62508;BME280;48556;51.972;4.624;2022-09-09T05:06:39;100636.00;;;18.18;67.16
62508;BME280;48556;51.972;4.624;2022-09-09T05:09:05;100643.16;;;18.35;66.43
62508;BME280;48556;51.972;4.624;2022-09-09T05:11:32;100639.53;;;18.36;66.50
62508;BME280;48556;51.972;4.624;2022-09-09T05:14:02;100642.34;;;18.33;67.05
62508;BME280;48556;51.972;4.624;2022-09-09T05:16:31;100639.13;;;18.26;67.51
62508;BME280;48556;51.972;4.624;2022-09-09T05:19:01;100642.50;;;18.49;66.79
62508;BME280;48556;51.972;4.624;2022-09-09T05:21:31;100635.75;;;18.23;67.53
62508;BME280;48556;51.972;4.624;2022-09-09T05:24:06;100629.94;;;17.75;69.03
62508;BME280;48556;51.972;4.624;2022-09-09T05:26:32;100624.81;;;17.91;68.57
62508;BME280;48556;51.972;4.624;2022-09-09T05:29:03;100628.13;;;18.15;68.47
62508;BME280;48556;51.972;4.624;2022-09-09T05:31:38;100628.13;;;18.15;68.55
62508;BME280;48556;51.972;4.624;2022-09-09T05:34:06;100626.91;;;18.03;68.77
62508;BME280;48556;51.972;4.624;2022-09-09T05:36:32;100641.66;;;18.30;68.14
62508;BME280;48556;51.972;4.624;2022-09-09T05:38:58;100634.84;;;17.84;69.69
62508;BME280;48556;51.972;4.624;2022-09-09T05:41:23;100627.25;;;17.96;69.73
62508;BME280;48556;51.972;4.624;2022-09-09T05:43:49;100629.19;;;18.11;68.78
62508;BME280;48556;51.972;4.624;2022-09-09T05:46:23;100640.84;;;18.27;68.27
62508;BME280;48556;51.972;4.624;2022-09-09T05:49:02;100632.09;;;18.25;68.43
62508;BME280;48556;51.972;4.624;2022-09-09T05:51:31;100639.13;;;18.07;69.07
62508;BME280;48556;51.972;4.624;2022-09-09T05:53:59;100639.50;;;18.19;68.83
62508;BME280;48556;51.972;4.624;2022-09-09T05:56:27;100643.66;;;18.24;69.20
62508;BME280;48556;51.972;4.624;2022-09-09T05:58:56;100644.41;;;18.28;69.15
62508;BME280;48556;51.972;4.624;2022-09-09T06:01:28;100633.28;;;18.37;68.28
62508;BME280;48556;51.972;4.624;2022-09-09T06:04:00;100632.63;;;18.51;67.97
62508;BME280;48556;51.972;4.624;2022-09-09T06:06:30;100637.69;;;18.38;68.16
62508;BME280;48556;51.972;4.624;2022-09-09T06:08:59;100644.41;;;18.28;68.74
62508;BME280;48556;51.972;4.624;2022-09-09T06:11:29;100642.38;;;18.70;67.74
62508;BME280;48556;51.972;4.624;2022-09-09T06:13:59;100643.19;;;18.72;67.17
62508;BME280;48556;51.972;4.624;2022-09-09T06:16:34;100642.03;;;18.58;67.85
62508;BME280;48556;51.972;4.624;2022-09-09T06:19:02;100640.00;;;18.83;67.43
62508;BME280;48556;51.972;4.624;2022-09-09T06:21:34;100648.09;;;18.62;67.19
62508;BME280;48556;51.972;4.624;2022-09-09T06:24:16;100644.75;;;18.95;66.45
62508;BME280;48556;51.972;4.624;2022-09-09T06:26:52;100643.81;;;18.77;66.98
62508;BME280;48556;51.972;4.624;2022-09-09T06:29:19;100644.50;;;19.00;66.77
62508;BME280;48556;51.972;4.624;2022-09-09T06:31:45;100641.00;;;18.99;66.41
62508;BME280;48556;51.972;4.624;2022-09-09T06:34:18;100639.19;;;19.35;65.44
62508;BME280;48556;51.972;4.624;2022-09-09T06:36:51;100633.28;;;18.93;66.86
62508;BME280;48556;51.972;4.624;2022-09-09T06:39:19;100639.47;;;19.46;65.37
62508;BME280;48556;51.972;4.624;2022-09-09T06:41:57;100642.59;;;19.54;65.15
62508;BME280;48556;51.972;4.624;2022-09-09T06:44:24;100633.50;;;19.41;64.92
62508;BME280;48556;51.972;4.624;2022-09-09T06:46:52;100645.28;;;19.54;64.86
62508;BME280;48556;51.972;4.624;2022-09-09T06:49:21;100643.53;;;19.71;63.78
62508;BME280;48556;51.972;4.624;2022-09-09T06:51:47;100645.41;;;19.69;63.99
62508;BME280;48556;51.972;4.624;2022-09-09T06:54:17;100643.34;;;19.74;63.91
62508;BME280;48556;51.972;4.624;2022-09-09T06:56:45;100644.56;;;19.86;63.30
62508;BME280;48556;51.972;4.624;2022-09-09T06:59:19;100644.22;;;20.08;62.32
62508;BME280;48556;51.972;4.624;2022-09-09T07:01:44;100643.97;;;19.79;63.11
62508;BME280;48556;51.972;4.624;2022-09-09T07:04:11;100648.88;;;19.53;64.07
62508;BME280;48556;51.972;4.624;2022-09-09T07:06:41;100645.06;;;19.24;65.21
62508;BME280;48556;51.972;4.624;2022-09-09T07:09:11;100647.97;;;19.70;64.03
62508;BME280;48556;51.972;4.624;2022-09-09T07:11:42;100642.94;;;19.13;64.60
62508;BME280;48556;51.972;4.624;2022-09-09T07:14:09;100645.75;;;19.10;65.21
62508;BME280;48556;51.972;4.624;2022-09-09T07:16:46;100648.22;;;19.66;64.15
62508;BME280;48556;51.972;4.624;2022-09-09T07:19:14;100637.31;;;19.70;63.76
62508;BME280;48556;51.972;4.624;2022-09-09T07:21:47;100633.94;;;19.84;63.47
62508;BME280;48556;51.972;4.624;2022-09-09T07:24:20;100635.84;;;19.64;63.63
62508;BME280;48556;51.972;4.624;2022-09-09T07:26:59;100644.00;;;19.61;63.80
62508;BME280;48556;51.972;4.624;2022-09-09T07:29:37;100648.44;;;20.12;62.02
62508;BME280;48556;51.972;4.624;2022-09-09T07:32:14;100638.94;;;19.57;63.43
62508;BME280;48556;51.972;4.624;2022-09-09T07:34:51;100635.81;;;20.00;62.46
62508;BME280;48556;51.972;4.624;2022-09-09T07:37:17;100634.34;;;20.26;61.60
62508;BME280;48556;51.972;4.624;2022-09-09T07:39:48;100634.59;;;19.72;63.24
62508;BME280;48556;51.972;4.624;2022-09-09T07:42:16;100646.38;;;18.98;65.18
62508;BME280;48556;51.972;4.624;2022-09-09T07:44:42;100637.53;;;19.32;64.72
62508;BME280;48556;51.972;4.624;2022-09-09T07:47:08;100647.59;;;19.60;63.66
62508;BME280;48556;51.972;4.624;2022-09-09T07:49:33;100648.69;;;19.74;63.26
62508;BME280;48556;51.972;4.624;2022-09-09T07:52:00;100645.19;;;19.56;63.85
62508;BME280;48556;51.972;4.624;2022-09-09T07:54:36;100638.41;;;19.15;64.57
62508;BME280;48556;51.972;4.624;2022-09-09T07:57:04;100645.22;;;19.38;64.41
62508;BME280;48556;51.972;4.624;2022-09-09T07:59:33;100650.25;;;19.78;63.38
62508;BME280;48556;51.972;4.624;2022-09-09T08:01:58;100636.81;;;19.63;63.63
62508;BME280;48556;51.972;4.624;2022-09-09T08:04:25;100645.66;;;19.64;63.64
62508;BME280;48556;51.972;4.624;2022-09-09T08:06:59;100647.34;;;19.32;63.94
62508;BME280;48556;51.972;4.624;2022-09-09T08:09:34;100649.97;;;19.49;64.27
62508;BME280;48556;51.972;4.624;2022-09-09T08:12:03;100644.78;;;19.81;62.87
62508;BME280;48556;51.972;4.624;2022-09-09T08:14:29;100647.28;;;19.84;62.81
62508;BME280;48556;51.972;4.624;2022-09-09T08:16:57;100645.16;;;19.91;62.36
62508;BME280;48556;51.972;4.624;2022-09-09T08:19:23;100650.44;;;19.57;63.79
62508;BME280;48556;51.972;4.624;2022-09-09T08:21:56;100649.16;;;19.64;63.80
62508;BME280;48556;51.972;4.624;2022-09-09T08:24:24;100647.91;;;19.89;63.37
62508;BME280;48556;51.972;4.624;2022-09-09T08:27:07;100647.84;;;20.07;62.77
62508;BME280;48556;51.972;4.624;2022-09-09T08:29:35;100649.16;;;19.64;63.80
62508;BME280;48556;51.972;4.624;2022-09-09T08:32:02;100644.78;;;19.81;63.17
62508;BME280;48556;51.972;4.624;2022-09-09T08:34:27;100648.06;;;19.86;63.17
62508;BME280;48556;51.972;4.624;2022-09-09T08:36:54;100656.25;;;19.83;62.99
62508;BME280;48556;51.972;4.624;2022-09-09T08:39:27;100654.25;;;19.87;62.94
62508;BME280;48556;51.972;4.624;2022-09-09T08:44:50;100653.00;;;19.76;63.35
62508;BME280;48556;51.972;4.624;2022-09-09T08:53:00;100658.81;;;19.67;64.09
62508;BME280;48556;51.972;4.624;2022-09-09T09:03:45;100667.78;;;19.66;65.41
62508;BME280;48556;51.972;4.624;2022-09-09T09:11:54;100680.63;;;19.93;64.85
62508;BME280;48556;51.972;4.624;2022-09-09T09:14:25;100675.69;;;19.85;65.59
62508;BME280;48556;51.972;4.624;2022-09-09T09:17:04;100670.66;;;19.61;66.34
62508;BME280;48556;51.972;4.624;2022-09-09T09:19:38;100668.25;;;20.08;64.76
62508;BME280;48556;51.972;4.624;2022-09-09T09:22:17;100682.31;;;19.94;64.75
62508;BME280;48556;51.972;4.624;2022-09-09T09:24:52;100685.59;;;19.83;65.96
62508;BME280;48556;51.972;4.624;2022-09-09T09:28:10;100678.13;;;19.72;65.57
62508;BME280;48556;51.972;4.624;2022-09-09T09:33:49;100678.38;;;19.50;66.95
62508;BME280;48556;51.972;4.624;2022-09-09T09:36:16;100668.31;;;19.73;66.54
62508;BME280;48556;51.972;4.624;2022-09-09T09:39:21;100658.13;;;19.81;66.57
62508;BME280;48556;51.972;4.624;2022-09-09T09:41:47;100662.25;;;19.87;66.51
62508;BME280;48556;51.972;4.624;2022-09-09T09:44:26;100666.22;;;19.62;67.00
62508;BME280;48556;51.972;4.624;2022-09-09T09:46:52;100659.31;;;19.40;67.97
62508;BME280;48556;51.972;4.624;2022-09-09T09:49:18;100656.16;;;19.67;67.73
62508;BME280;48556;51.972;4.624;2022-09-09T09:51:44;100651.09;;;19.78;66.59
62508;BME280;48556;51.972;4.624;2022-09-09T09:56:40;100649.94;;;20.34;65.83
62508;BME280;48556;51.972;4.624;2022-09-09T10:01:52;100649.41;;;20.11;65.88
62508;BME280;48556;51.972;4.624;2022-09-09T10:04:24;100657.75;;;20.05;65.58
62508;BME280;48556;51.972;4.624;2022-09-09T10:06:50;100650.66;;;19.88;65.11
62508;BME280;48556;51.972;4.624;2022-09-09T10:09:25;100638.31;;;20.35;64.40
62508;BME280;48556;51.972;4.624;2022-09-09T10:26:26;100648.81;;;20.86;63.80
62508;BME280;48556;51.972;4.624;2022-09-09T10:29:25;100653.50;;;20.82;64.29
62508;BME280;48556;51.972;4.624;2022-09-09T10:32:09;100655.03;;;20.86;64.56
62508;BME280;48556;51.972;4.624;2022-09-09T10:35:09;100651.75;;;20.49;65.07
62508;BME280;48556;51.972;4.624;2022-09-09T10:37:58;100661.25;;;20.39;64.82
62508;BME280;48556;51.972;4.624;2022-09-09T10:40:33;100658.28;;;20.91;64.34
62508;BME280;48556;51.972;4.624;2022-09-09T10:45:57;100648.78;;;21.02;63.51
62508;BME280;48556;51.972;4.624;2022-09-09T10:51:23;100647.69;;;20.10;65.81
62508;BME280;48556;51.972;4.624;2022-09-09T10:56:30;100654.47;;;20.00;66.88
62508;BME280;48556;51.972;4.624;2022-09-09T10:59:07;100655.34;;;20.16;67.24
62508;BME280;48556;51.972;4.624;2022-09-09T11:02:00;100647.91;;;19.89;68.21
62508;BME280;48556;51.972;4.624;2022-09-09T11:04:35;100649.09;;;19.84;68.04
62508;BME280;48556;51.972;4.624;2022-09-09T11:07:09;100656.00;;;20.04;68.80
62508;BME280;48556;51.972;4.624;2022-09-09T11:09:41;100643.53;;;20.04;67.42
62508;BME280;48556;51.972;4.624;2022-09-09T11:12:17;100651.22;;;20.42;66.34
62508;BME280;48556;51.972;4.624;2022-09-09T11:14:50;100649.50;;;20.57;66.08
62508;BME280;48556;51.972;4.624;2022-09-09T11:17:26;100660.88;;;20.29;66.43
62508;BME280;48556;51.972;4.624;2022-09-09T11:19:53;100646.25;;;20.36;65.25
62508;BME280;48556;51.972;4.624;2022-09-09T11:22:37;100656.72;;;20.87;63.79
62508;BME280;48556;51.972;4.624;2022-09-09T11:28:07;100650.38;;;21.20;62.55
62508;BME280;48556;51.972;4.624;2022-09-09T11:31:12;100655.25;;;21.28;62.57
62508;BME280;48556;51.972;4.624;2022-09-09T11:42:15;100643.19;;;21.65;60.02
62508;BME280;48556;51.972;4.624;2022-09-09T11:44:43;100655.19;;;21.44;61.49
62508;BME280;48556;51.972;4.624;2022-09-09T11:47:24;100654.88;;;21.34;61.59
62508;BME280;48556;51.972;4.624;2022-09-09T11:50:08;100660.91;;;21.38;62.61
62508;BME280;48556;51.972;4.624;2022-09-09T11:52:39;100655.84;;;21.03;64.91
62508;BME280;48556;51.972;4.624;2022-09-09T11:55:27;100651.06;;;21.38;64.46
62508;BME280;48556;51.972;4.624;2022-09-09T11:58:05;100662.31;;;21.29;64.91
62508;BME280;48556;51.972;4.624;2022-09-09T12:00:49;100657.03;;;21.13;65.23
62508;BME280;48556;51.972;4.624;2022-09-09T12:06:29;100648.03;;;21.14;65.78
62508;BME280;48556;51.972;4.624;2022-09-09T12:11:46;100653.44;;;20.98;65.69
62508;BME280;48556;51.972;4.624;2022-09-09T12:14:38;100654.34;;;20.82;65.72
62508;BME280;48556;51.972;4.624;2022-09-09T12:19:38;100643.31;;;20.41;68.32
62508;BME280;48556;51.972;4.624;2022-09-09T12:22:19;100661.97;;;20.57;68.01
62508;BME280;48556;51.972;4.624;2022-09-09T12:25:04;100666.97;;;20.47;68.22
62508;BME280;48556;51.972;4.624;2022-09-09T12:28:05;100660.84;;;20.13;69.36
62508;BME280;48556;51.972;4.624;2022-09-09T12:30:37;100663.75;;;19.92;70.42
62508;BME280;48556;51.972;4.624;2022-09-09T12:33:11;100651.03;;;20.13;69.69
62508;BME280;48556;51.972;4.624;2022-09-09T12:35:42;100664.66;;;20.25;69.97
62508;BME280;48556;51.972;4.624;2022-09-09T12:38:36;100666.19;;;19.97;71.53
62508;BME280;48556;51.972;4.624;2022-09-09T12:41:00;100670.16;;;20.06;70.88
62508;BME280;48556;51.972;4.624;2022-09-09T12:43:28;100677.78;;;19.96;71.16
62508;BME280;48556;51.972;4.624;2022-09-09T12:46:10;100676.56;;;19.86;70.46
62508;BME280;48556;51.972;4.624;2022-09-09T12:48:41;100669.75;;;19.62;71.66
62508;BME280;48556;51.972;4.624;2022-09-09T12:51:23;100664.00;;;19.88;71.75
62508;BME280;48556;51.972;4.624;2022-09-09T12:53:51;100672.25;;;19.83;70.96
62508;BME280;48556;51.972;4.624;2022-09-09T12:56:25;100666.13;;;19.63;72.10
62508;BME280;48556;51.972;4.624;2022-09-09T12:58:54;100662.59;;;19.63;72.36
62508;BME280;48556;51.972;4.624;2022-09-09T13:01:32;100664.06;;;19.86;72.31
62508;BME280;48556;51.972;4.624;2022-09-09T13:04:01;100669.00;;;19.76;71.69
62508;BME280;48556;51.972;4.624;2022-09-09T13:06:31;100664.53;;;19.94;71.04
62508;BME280;48556;51.972;4.624;2022-09-09T13:08:59;100670.81;;;19.93;70.79
62508;BME280;48556;51.972;4.624;2022-09-09T13:11:30;100674.94;;;19.48;71.89
62508;BME280;48556;51.972;4.624;2022-09-09T13:13:58;100680.41;;;19.62;72.29
62508;BME280;48556;51.972;4.624;2022-09-09T13:16:34;100666.28;;;19.25;73.40
62508;BME280;48556;51.972;4.624;2022-09-09T13:19:06;100662.47;;;19.49;73.57
62508;BME280;48556;51.972;4.624;2022-09-09T13:21:39;100667.19;;;19.77;71.83
62508;BME280;48556;51.972;4.624;2022-09-09T13:24:29;100661.03;;;19.59;71.72
62508;BME280;48556;51.972;4.624;2022-09-09T13:27:00;100679.38;;;20.16;70.79
62508;BME280;48556;51.972;4.624;2022-09-09T13:29:27;100683.28;;;20.58;68.98
62508;BME280;48556;51.972;4.624;2022-09-09T13:31:54;100695.97;;;21.78;66.54
62508;BME280;48556;51.972;4.624;2022-09-09T13:34:30;100686.13;;;21.93;63.94
62508;BME280;48556;51.972;4.624;2022-09-09T13:37:05;100685.38;;;22.34;63.59
62508;BME280;48556;51.972;4.624;2022-09-09T13:39:36;100677.16;;;22.37;63.03
62508;BME280;48556;51.972;4.624;2022-09-09T13:42:03;100682.25;;;22.96;62.11
62508;BME280;48556;51.972;4.624;2022-09-09T13:44:40;100684.59;;;22.32;63.84
62508;BME280;48556;51.972;4.624;2022-09-09T13:49:38;100686.59;;;21.56;64.20
62508;BME280;48556;51.972;4.624;2022-09-09T13:52:16;100685.75;;;21.40;65.60
62508;BME280;48556;51.972;4.624;2022-09-09T13:54:52;100688.63;;;20.58;67.58
62508;BME280;48556;51.972;4.624;2022-09-09T13:57:24;100695.44;;;20.80;67.81
62508;BME280;48556;51.972;4.624;2022-09-09T13:59:52;100691.31;;;20.58;68.39
62508;BME280;48556;51.972;4.624;2022-09-09T14:02:18;100685.50;;;20.18;69.92
62508;BME280;48556;51.972;4.624;2022-09-09T14:04:44;100683.84;;;19.82;70.99
62508;BME280;48556;51.972;4.624;2022-09-09T14:07:18;100676.25;;;19.39;73.25
62508;BME280;48556;51.972;4.624;2022-09-09T14:09:44;100687.78;;;19.05;73.96
62508;BME280;48556;51.972;4.624;2022-09-09T14:12:11;100692.22;;;19.04;74.75
62508;BME280;48556;51.972;4.624;2022-09-09T14:14:37;100687.31;;;19.14;75.03
62508;BME280;48556;51.972;4.624;2022-09-09T14:17:03;100686.50;;;18.94;75.16
62508;BME280;48556;51.972;4.624;2022-09-09T14:19:29;100682.00;;;19.32;74.59
62508;BME280;48556;51.972;4.624;2022-09-09T14:21:56;100683.41;;;19.39;73.77
62508;BME280;48556;51.972;4.624;2022-09-09T14:24:22;100680.69;;;19.74;72.95
62508;BME280;48556;51.972;4.624;2022-09-09T14:26:47;100680.25;;;19.83;72.85
62508;BME280;48556;51.972;4.624;2022-09-09T14:29:13;100678.41;;;20.01;72.56
62508;BME280;48556;51.972;4.624;2022-09-09T14:31:38;100679.00;;;20.06;72.07
62508;BME280;48556;51.972;4.624;2022-09-09T14:34:04;100687.19;;;20.03;72.21
62508;BME280;48556;51.972;4.624;2022-09-09T14:36:29;100685.16;;;20.24;72.21
62508;BME280;48556;51.972;4.624;2022-09-09T14:38:55;100683.94;;;20.30;71.15
62508;BME280;48556;51.972;4.624;2022-09-09T14:41:20;100689.53;;;20.41;70.58
62508;BME280;48556;51.972;4.624;2022-09-09T14:43:48;100689.84;;;20.69;69.48
62508;BME280;48556;51.972;4.624;2022-09-09T14:46:15;100689.03;;;20.66;69.90
62508;BME280;48556;51.972;4.624;2022-09-09T14:48:41;100690.94;;;20.32;69.92
62508;BME280;48556;51.972;4.624;2022-09-09T14:51:13;100694.47;;;20.49;70.25
62508;BME280;48556;51.972;4.624;2022-09-09T14:53:41;100698.44;;;21.06;67.34
62508;BME280;48556;51.972;4.624;2022-09-09T14:56:12;100698.84;;;22.18;64.80
62508;BME280;48556;51.972;4.624;2022-09-09T14:58:38;100694.38;;;23.02;60.88
62508;BME280;48556;51.972;4.624;2022-09-09T15:01:15;100694.75;;;24.15;58.62
62508;BME280;48556;51.972;4.624;2022-09-09T15:03:44;100698.44;;;24.88;55.00
62508;BME280;48556;51.972;4.624;2022-09-09T15:06:14;100689.75;;;26.48;51.36
62508;BME280;48556;51.972;4.624;2022-09-09T15:08:42;100693.53;;;27.75;47.39
62508;BME280;48556;51.972;4.624;2022-09-09T15:11:10;100692.75;;;28.05;45.51
62508;BME280;48556;51.972;4.624;2022-09-09T15:13:37;100694.75;;;27.40;46.25